createdAt,value
2023-03-26T00:01:30.608Z,45.41
2023-03-26T00:03:58.297Z,45.34
2023-03-26T00:06:29.310Z,45.19
2023-03-26T00:08:58.476Z,44.88
2023-03-26T00:11:28.946Z,44.99
2023-03-26T00:13:58.232Z,45.00
2023-03-26T00:16:30.742Z,45.04
2023-03-26T00:18:58.722Z,45.16
2023-03-26T00:21:29.995Z,44.74
2023-03-26T00:24:00.850Z,45.03
2023-03-26T00:26:28.687Z,45.08
2023-03-26T00:28:55.979Z,45.21
2023-03-26T00:31:23.700Z,45.05
2023-03-26T00:33:52.993Z,45.13
2023-03-26T00:36:20.582Z,45.10
2023-03-26T00:38:48.592Z,45.27
2023-03-26T00:41:19.461Z,45.48
2023-03-26T00:43:46.982Z,45.81
2023-03-26T00:46:15.086Z,45.84
2023-03-26T00:48:45.574Z,45.52
2023-03-26T00:51:16.084Z,45.67
2023-03-26T00:53:46.761Z,45.63
2023-03-26T00:56:14.433Z,46.17
2023-03-26T00:58:41.965Z,45.87
2023-03-26T01:01:25.347Z,45.61
2023-03-26T01:04:06.910Z,45.68
2023-03-26T01:06:39.859Z,45.79
2023-03-26T01:09:18.107Z,45.92
2023-03-26T01:11:46.239Z,46.09
2023-03-26T01:14:20.541Z,45.91
2023-03-26T01:17:01.340Z,45.53
2023-03-26T01:19:46.437Z,45.75
2023-03-26T01:22:19.157Z,45.85
2023-03-26T01:24:47.070Z,46.28
2023-03-26T01:27:31.604Z,46.01
2023-03-26T01:30:25.611Z,45.90
2023-03-26T01:33:36.861Z,46.36
2023-03-26T01:36:26.112Z,46.20
2023-03-26T01:39:17.222Z,46.08
2023-03-26T01:41:54.640Z,46.12
2023-03-26T01:45:03.555Z,45.99
2023-03-26T01:47:32.714Z,46.10
2023-03-26T01:49:59.912Z,46.16
2023-03-26T01:52:27.090Z,46.09
2023-03-26T01:54:57.103Z,45.94
2023-03-26T01:57:35.201Z,46.13
2023-03-26T02:00:11.609Z,46.42
2023-03-26T02:03:16.654Z,46.30
2023-03-26T02:05:56.764Z,46.86
2023-03-26T02:08:37.279Z,46.99
2023-03-26T02:11:11.478Z,46.80
2023-03-26T02:13:45.276Z,46.48
2023-03-26T02:16:15.492Z,46.27
2023-03-26T02:18:45.090Z,46.53
2023-03-26T02:21:14.339Z,47.00
2023-03-26T02:23:43.676Z,46.81
2023-03-26T02:26:12.680Z,46.57
2023-03-26T02:28:40.488Z,47.25
2023-03-26T02:31:08.488Z,47.02
2023-03-26T02:33:36.640Z,47.04
2023-03-26T02:36:05.308Z,46.61
2023-03-26T02:38:33.410Z,46.64
2023-03-26T02:41:01.292Z,46.40
2023-03-26T02:43:29.284Z,46.86
2023-03-26T02:45:57.566Z,46.65
2023-03-26T02:48:25.450Z,46.68
2023-03-26T02:50:53.311Z,47.30
2023-03-26T02:53:22.054Z,47.10
2023-03-26T02:55:50.010Z,47.24
2023-03-26T02:58:17.680Z,46.90
2023-03-26T03:00:45.765Z,47.13
2023-03-26T03:03:14.103Z,47.24
2023-03-26T03:05:41.743Z,47.08
2023-03-26T03:08:10.289Z,47.51
2023-03-26T03:10:37.848Z,47.61
2023-03-26T03:13:05.080Z,47.57
2023-03-26T03:15:32.669Z,47.63
2023-03-26T03:17:59.861Z,47.76
2023-03-26T03:20:27.142Z,48.07
2023-03-26T03:22:54.257Z,47.88
2023-03-26T03:25:21.446Z,48.39
2023-03-26T03:27:48.611Z,48.20
2023-03-26T03:30:16.311Z,48.15
2023-03-26T03:32:43.603Z,47.93
2023-03-26T03:35:10.778Z,48.48
2023-03-26T03:37:37.985Z,48.20
2023-03-26T03:40:06.179Z,48.25
2023-03-26T03:42:33.628Z,48.46
2023-03-26T03:45:00.921Z,48.84
2023-03-26T03:47:28.261Z,48.48
2023-03-26T03:49:55.390Z,48.39
2023-03-26T03:52:22.993Z,47.96
2023-03-26T03:54:50.172Z,48.41
2023-03-26T03:57:17.726Z,48.06
2023-03-26T03:59:47.648Z,47.98
2023-03-26T04:02:16.400Z,48.44
2023-03-26T04:04:43.607Z,48.24
2023-03-26T04:07:10.899Z,48.29
2023-03-26T04:09:38.216Z,48.21
2023-03-26T04:12:05.722Z,48.46
2023-03-26T04:14:32.927Z,48.49
2023-03-26T04:17:00.136Z,48.33
2023-03-26T04:19:27.402Z,48.41
2023-03-26T04:21:54.918Z,48.42
2023-03-26T04:24:22.093Z,48.46
2023-03-26T04:26:49.544Z,48.57
2023-03-26T04:29:17.288Z,48.06
2023-03-26T04:31:44.923Z,48.27
2023-03-26T04:34:30.342Z,48.48
2023-03-26T04:36:57.548Z,48.29
2023-03-26T04:39:25.050Z,48.01
2023-03-26T04:41:52.184Z,48.30
2023-03-26T04:44:19.809Z,48.33
2023-03-26T04:46:46.969Z,48.26
2023-03-26T04:49:14.408Z,48.64
2023-03-26T04:51:42.271Z,48.54
2023-03-26T04:54:14.022Z,48.79
2023-03-26T04:56:49.942Z,48.83
2023-03-26T04:59:34.388Z,48.79
2023-03-26T05:02:06.401Z,49.06
2023-03-26T05:04:33.786Z,48.73
2023-03-26T05:07:01.022Z,49.16
2023-03-26T05:09:28.875Z,49.00
2023-03-26T05:11:56.178Z,48.88
2023-03-26T05:14:23.426Z,48.80
2023-03-26T05:16:51.746Z,49.22
2023-03-26T05:19:19.370Z,49.21
2023-03-26T05:21:48.012Z,49.64
2023-03-26T05:24:15.560Z,49.55
2023-03-26T05:26:43.043Z,49.45
2023-03-26T05:29:10.406Z,48.94
2023-03-26T05:31:37.623Z,49.03
2023-03-26T05:34:05.022Z,49.74
2023-03-26T05:36:32.414Z,49.70
2023-03-26T05:38:59.830Z,49.75
2023-03-26T05:41:27.165Z,49.56
2023-03-26T05:43:54.410Z,49.74
2023-03-26T05:46:21.862Z,49.83
2023-03-26T05:48:49.850Z,49.70
2023-03-26T05:51:17.135Z,49.75
2023-03-26T05:53:44.374Z,50.02
2023-03-26T05:56:11.520Z,50.05
2023-03-26T05:58:39.179Z,49.82
2023-03-26T06:01:10.711Z,49.30
2023-03-26T06:03:40.197Z,49.86
2023-03-26T06:06:10.981Z,50.19
2023-03-26T06:08:38.246Z,50.00
2023-03-26T06:11:06.251Z,50.10
2023-03-26T06:13:34.479Z,49.72
2023-03-26T06:16:01.864Z,49.58
2023-03-26T06:18:29.136Z,50.40
2023-03-26T06:20:56.671Z,50.47
2023-03-26T06:23:24.106Z,49.91
2023-03-26T06:25:51.618Z,49.74
2023-03-26T06:28:19.258Z,50.34
2023-03-26T06:30:46.750Z,49.89
2023-03-26T06:33:14.308Z,50.02
2023-03-26T06:35:41.987Z,50.33
2023-03-26T06:38:09.468Z,50.17
2023-03-26T06:40:36.934Z,49.81
2023-03-26T06:43:09.246Z,50.80
2023-03-26T06:45:38.211Z,50.21
2023-03-26T06:48:05.954Z,50.05
2023-03-26T06:50:33.261Z,49.98
2023-03-26T06:53:01.053Z,49.41
2023-03-26T06:55:28.378Z,49.00
2023-03-26T06:57:56.104Z,48.64
2023-03-26T07:00:24.643Z,48.02
2023-03-26T07:02:52.557Z,47.29
2023-03-26T07:05:20.157Z,46.79
2023-03-26T07:07:49.710Z,46.39
2023-03-26T07:10:16.952Z,45.32
2023-03-26T07:12:44.156Z,45.14
2023-03-26T07:15:11.486Z,45.15
2023-03-26T07:17:38.829Z,44.99
2023-03-26T07:20:08.687Z,44.98
2023-03-26T07:22:36.443Z,44.93
2023-03-26T07:25:04.533Z,44.70
2023-03-26T07:28:08.947Z,44.27
2023-03-26T07:31:01.008Z,45.08
2023-03-26T07:34:02.404Z,44.76
2023-03-26T07:36:46.524Z,43.50
2023-03-26T07:39:43.215Z,43.26
2023-03-26T07:42:36.114Z,43.06
2023-03-26T07:45:31.234Z,42.90
2023-03-26T07:47:58.927Z,42.72
2023-03-26T07:50:26.658Z,41.78
2023-03-26T07:52:54.281Z,40.36
2023-03-26T07:55:21.762Z,39.89
2023-03-26T07:58:30.899Z,38.99
2023-03-26T08:01:16.471Z,38.24
2023-03-26T08:04:25.797Z,37.58
2023-03-26T08:07:08.201Z,37.43
2023-03-26T08:10:12.600Z,37.50
2023-03-26T08:13:04.736Z,36.57
2023-03-26T08:15:41.699Z,35.88
2023-03-26T08:18:26.521Z,35.81
2023-03-26T08:21:11.761Z,35.89
2023-03-26T08:24:13.031Z,36.14
2023-03-26T08:27:01.574Z,36.13
2023-03-26T08:29:42.711Z,35.71
2023-03-26T08:32:17.803Z,35.96
2023-03-26T08:34:46.210Z,35.92
2023-03-26T08:37:13.989Z,35.65
2023-03-26T08:39:41.302Z,35.66
2023-03-26T08:42:39.097Z,33.54
2023-03-26T08:46:12.415Z,33.35
2023-03-26T08:49:13.848Z,33.45
2023-03-26T08:52:34.122Z,33.21
2023-03-26T08:55:26.044Z,33.26
2023-03-26T08:57:59.255Z,33.92
2023-03-26T09:00:53.436Z,33.05
2023-03-26T09:03:57.828Z,33.03
2023-03-26T09:07:02.758Z,32.67
2023-03-26T09:10:30.370Z,32.75
2023-03-26T09:13:36.964Z,32.58
2023-03-26T09:16:48.822Z,32.99
2023-03-26T09:19:49.240Z,32.57
2023-03-26T09:23:06.969Z,32.51
2023-03-26T09:26:11.664Z,32.01
2023-03-26T09:29:25.045Z,31.70
2023-03-26T09:32:40.481Z,31.44
2023-03-26T09:35:38.793Z,30.88
2023-03-26T09:38:17.609Z,31.10
2023-03-26T09:41:22.304Z,30.60
2023-03-26T09:44:29.040Z,30.00
2023-03-26T09:47:35.092Z,30.41
2023-03-26T09:50:34.904Z,29.72
2023-03-26T09:53:16.785Z,29.37
2023-03-26T09:56:16.342Z,29.32
2023-03-26T09:59:19.816Z,29.62
2023-03-26T10:02:46.454Z,29.99
2023-03-26T10:05:29.944Z,30.51
2023-03-26T10:08:24.293Z,29.80
2023-03-26T10:11:31.423Z,28.18
2023-03-26T10:14:15.483Z,28.34
2023-03-26T10:17:39.644Z,28.53
2023-03-26T10:20:41.980Z,29.02
2023-03-26T10:23:37.119Z,29.15
2023-03-26T10:27:08.371Z,28.93
2023-03-26T10:30:14.953Z,29.38
2023-03-26T10:33:07.009Z,29.60
2023-03-26T10:35:51.183Z,29.64
2023-03-26T10:38:54.457Z,28.94
2023-03-26T10:42:11.605Z,28.23
2023-03-26T10:45:07.402Z,26.68
2023-03-26T10:47:49.831Z,25.82
2023-03-26T10:50:42.354Z,25.42
2023-03-26T10:53:42.776Z,24.98
2023-03-26T10:56:28.559Z,25.92
2023-03-26T10:58:57.285Z,26.22
2023-03-26T11:01:33.352Z,26.36
2023-03-26T11:04:45.135Z,26.73
2023-03-26T11:07:39.063Z,26.72
2023-03-26T11:10:46.632Z,27.29
2023-03-26T11:13:36.653Z,27.52
2023-03-26T11:16:14.309Z,27.31
2023-03-26T11:18:49.975Z,26.44
2023-03-26T11:21:52.172Z,26.17
2023-03-26T11:25:12.853Z,25.78
2023-03-26T11:28:13.622Z,26.16
2023-03-26T11:30:47.264Z,26.14
2023-03-26T11:33:32.801Z,26.68
2023-03-26T11:36:08.963Z,27.41
2023-03-26T11:38:43.942Z,27.83
2023-03-26T11:41:32.155Z,27.78
2023-03-26T11:44:23.376Z,28.39
2023-03-26T11:46:57.002Z,28.71
2023-03-26T11:49:25.688Z,28.66
2023-03-26T11:51:53.193Z,28.40
2023-03-26T11:54:20.690Z,28.98
2023-03-26T11:57:07.296Z,29.09
2023-03-26T12:00:01.514Z,29.20
2023-03-26T12:02:31.788Z,29.68
2023-03-26T12:05:13.181Z,29.69
2023-03-26T12:07:48.451Z,29.98
2023-03-26T12:10:24.880Z,29.96
2023-03-26T12:12:56.069Z,30.42
2023-03-26T12:15:24.678Z,30.39
2023-03-26T12:17:55.411Z,30.88
2023-03-26T12:20:26.210Z,31.10
2023-03-26T12:23:01.847Z,30.97
2023-03-26T12:25:38.285Z,31.03
2023-03-26T12:28:14.986Z,30.92
2023-03-26T12:31:12.734Z,31.05
2023-03-26T12:33:40.236Z,30.91
2023-03-26T12:36:23.159Z,31.14
2023-03-26T12:39:17.014Z,31.37
2023-03-26T12:43:40.183Z,31.28
2023-03-26T12:44:55.339Z,31.11
2023-03-26T12:47:59.726Z,31.01
2023-03-26T12:50:16.664Z,31.37
2023-03-26T12:53:00.599Z,31.47
2023-03-26T12:55:52.758Z,31.38
2023-03-26T12:58:59.698Z,31.39
2023-03-26T13:01:40.120Z,32.72
2023-03-26T13:05:05.615Z,31.91
2023-03-26T13:08:05.814Z,31.83
2023-03-26T13:11:02.019Z,32.41
2023-03-26T13:13:50.486Z,32.66
2023-03-26T13:16:36.101Z,33.17
2023-03-26T13:19:53.521Z,34.06
2023-03-26T13:22:36.864Z,35.46
2023-03-26T13:25:33.668Z,37.51
2023-03-26T13:28:38.063Z,37.46
2023-03-26T13:31:59.344Z,37.66
2023-03-26T13:34:53.813Z,37.14
2023-03-26T13:37:43.350Z,36.48
2023-03-26T13:41:00.124Z,36.63
2023-03-26T13:43:52.749Z,36.58
2023-03-26T13:46:51.734Z,36.50
2023-03-26T13:49:42.812Z,37.19
2023-03-26T13:52:30.766Z,38.11
2023-03-26T13:55:36.930Z,38.20
2023-03-26T13:58:34.295Z,38.19
2023-03-26T14:01:22.670Z,38.52
2023-03-26T14:03:58.656Z,38.87
2023-03-26T14:06:40.916Z,38.83
2023-03-26T14:09:22.260Z,39.01
2023-03-26T14:12:00.625Z,39.67
2023-03-26T14:15:07.288Z,39.67
2023-03-26T14:18:24.708Z,39.98
2023-03-26T14:21:49.729Z,41.23
2023-03-26T14:25:12.477Z,41.74
2023-03-26T14:28:19.372Z,43.88
2023-03-26T14:31:34.193Z,46.16
2023-03-26T14:34:26.547Z,47.59
2023-03-26T14:37:06.099Z,48.42
2023-03-26T14:40:22.510Z,48.49
2023-03-26T14:43:29.218Z,49.46
2023-03-26T14:46:39.917Z,49.57
2023-03-26T14:49:33.000Z,50.32
2023-03-26T14:52:47.468Z,50.46
2023-03-26T14:55:40.546Z,50.41
2023-03-26T14:58:32.170Z,50.89
2023-03-26T15:01:25.350Z,51.14
2023-03-26T15:04:07.752Z,51.41
2023-03-26T15:07:02.872Z,51.76
2023-03-26T15:10:00.973Z,52.06
2023-03-26T15:12:37.514Z,51.53
2023-03-26T15:15:54.052Z,51.71
2023-03-26T15:18:59.749Z,51.84
2023-03-26T15:22:20.050Z,52.46
2023-03-26T15:25:05.559Z,52.69
2023-03-26T15:28:30.864Z,52.76
2023-03-26T15:31:49.358Z,52.79
2023-03-26T15:35:16.126Z,53.12
2023-03-26T15:38:10.304Z,53.53
2023-03-26T15:41:26.765Z,53.59
2023-03-26T15:44:23.346Z,53.90
2023-03-26T15:47:18.445Z,54.30
2023-03-26T15:49:55.006Z,54.15
2023-03-26T15:52:38.713Z,53.74
2023-03-26T15:56:00.712Z,54.00
2023-03-26T15:59:18.990Z,54.06
2023-03-26T16:02:19.931Z,54.02
2023-03-26T16:05:24.255Z,54.17
2023-03-26T16:08:37.381Z,54.30
2023-03-26T16:11:06.861Z,54.14
2023-03-26T16:13:50.128Z,53.83
2023-03-26T16:16:34.181Z,53.80
2023-03-26T16:19:19.568Z,54.11
2023-03-26T16:22:00.712Z,54.07
2023-03-26T16:24:35.660Z,54.36
2023-03-26T16:27:05.876Z,54.21
2023-03-26T16:29:34.632Z,54.45
2023-03-26T16:32:23.012Z,54.29
2023-03-26T16:35:16.542Z,54.63
2023-03-26T16:38:06.947Z,54.61
2023-03-26T16:40:50.786Z,54.53
2023-03-26T16:43:43.825Z,54.90
2023-03-26T16:46:29.309Z,55.19
2023-03-26T16:49:44.953Z,55.19
2023-03-26T16:52:42.322Z,55.40
2023-03-26T16:55:30.956Z,55.65
2023-03-26T16:58:21.358Z,55.25
2023-03-26T17:01:17.701Z,55.52
2023-03-26T17:03:54.521Z,55.68
2023-03-26T17:07:18.270Z,55.85
2023-03-26T17:10:23.323Z,55.86
2023-03-26T17:13:08.477Z,56.08
2023-03-26T17:15:56.017Z,55.97
2023-03-26T17:19:05.426Z,56.09
2023-03-26T17:21:45.999Z,56.03
2023-03-26T17:24:45.056Z,56.30
2023-03-26T17:27:54.968Z,56.20
2023-03-26T17:31:04.475Z,56.45
2023-03-26T17:33:38.026Z,56.69
2023-03-26T17:36:20.469Z,56.59
2023-03-26T17:38:50.294Z,56.84
2023-03-26T17:41:53.119Z,56.82
2023-03-26T17:44:42.051Z,56.87
2023-03-26T17:47:22.902Z,57.00
2023-03-26T17:49:59.734Z,56.83
2023-03-26T17:53:01.785Z,56.86
2023-03-26T17:55:37.905Z,56.87
2023-03-26T17:58:21.216Z,57.03
2023-03-26T18:01:17.298Z,56.81
2023-03-26T18:04:02.014Z,56.90
2023-03-26T18:07:14.494Z,56.66
2023-03-26T18:10:09.246Z,57.10
2023-03-26T18:12:55.759Z,57.04
2023-03-26T18:15:48.084Z,57.11
2023-03-26T18:18:34.652Z,57.09
2023-03-26T18:21:06.409Z,57.04
2023-03-26T18:23:46.210Z,57.02
2023-03-26T18:26:18.999Z,57.26
2023-03-26T18:28:53.805Z,57.22
2023-03-26T18:31:26.546Z,57.20
2023-03-26T18:34:06.460Z,57.35
2023-03-26T18:36:33.609Z,57.21
2023-03-26T18:39:03.500Z,57.46
2023-03-26T18:41:37.188Z,57.02
2023-03-26T18:44:15.963Z,57.28
2023-03-26T18:46:44.561Z,57.38
2023-03-26T18:49:17.161Z,57.52
2023-03-26T18:51:56.084Z,57.29
2023-03-26T18:54:26.727Z,57.27
2023-03-26T18:56:53.925Z,57.57
2023-03-26T18:59:30.608Z,57.81
2023-03-26T19:02:02.178Z,57.68
2023-03-26T19:04:32.100Z,57.71
2023-03-26T19:07:01.164Z,57.88
2023-03-26T19:09:32.105Z,57.75
2023-03-26T19:12:23.047Z,57.79
2023-03-26T19:15:10.156Z,57.82
2023-03-26T19:17:46.851Z,57.87
2023-03-26T19:20:33.205Z,57.95
2023-03-26T19:23:00.708Z,57.87
2023-03-26T19:26:02.436Z,58.22
2023-03-26T19:28:36.726Z,58.19
2023-03-26T19:31:10.405Z,58.25
2023-03-26T19:33:42.155Z,58.25
2023-03-26T19:36:20.961Z,58.20
2023-03-26T19:38:59.754Z,58.26
2023-03-26T19:41:36.757Z,58.35
2023-03-26T19:44:27.687Z,58.24
2023-03-26T19:47:31.952Z,58.17
2023-03-26T19:50:30.059Z,58.31
2023-03-26T19:53:19.064Z,58.39
2023-03-26T19:55:56.977Z,58.63
2023-03-26T19:58:27.657Z,58.29
2023-03-26T20:00:55.859Z,58.53
2023-03-26T20:03:42.133Z,58.28
2023-03-26T20:06:18.116Z,58.36
2023-03-26T20:08:46.113Z,58.67
2023-03-26T20:11:22.854Z,58.50
2023-03-26T20:13:51.155Z,58.33
2023-03-26T20:16:34.321Z,58.30
2023-03-26T20:19:01.634Z,58.66
2023-03-26T20:21:31.046Z,58.54
2023-03-26T20:23:59.257Z,58.67
2023-03-26T20:26:26.668Z,58.50
2023-03-26T20:28:54.083Z,58.55
2023-03-26T20:31:26.021Z,58.52
2023-03-26T20:33:54.365Z,58.73
2023-03-26T20:36:33.778Z,58.47
2023-03-26T20:39:03.844Z,58.89
2023-03-26T20:41:31.096Z,59.17
2023-03-26T20:43:58.257Z,59.26
2023-03-26T20:46:31.195Z,59.04
2023-03-26T20:48:59.849Z,59.11
2023-03-26T20:51:27.679Z,59.07
2023-03-26T20:53:54.942Z,59.13
2023-03-26T20:56:22.097Z,59.06
2023-03-26T20:58:52.654Z,59.42
2023-03-26T21:01:25.096Z,59.60
2023-03-26T21:03:52.285Z,59.35
2023-03-26T21:06:19.650Z,59.17
2023-03-26T21:08:47.161Z,58.93
2023-03-26T21:11:34.754Z,58.93
2023-03-26T21:14:15.150Z,59.28
2023-03-26T21:16:42.883Z,59.27
2023-03-26T21:19:10.700Z,59.40
2023-03-26T21:22:24.043Z,59.54
2023-03-26T21:25:14.905Z,59.26
2023-03-26T21:28:39.804Z,59.10
2023-03-26T21:31:22.711Z,58.83
2023-03-26T21:33:51.362Z,59.67
2023-03-26T21:36:20.153Z,59.76
2023-03-26T21:38:47.707Z,59.82
2023-03-26T21:41:28.527Z,59.42
2023-03-26T21:43:55.709Z,59.29
2023-03-26T21:46:23.264Z,59.62
2023-03-26T21:48:50.782Z,59.12
2023-03-26T21:51:18.548Z,59.22
2023-03-26T21:53:46.252Z,59.45
2023-03-26T21:56:22.332Z,59.36
2023-03-26T21:59:18.733Z,59.39
2023-03-26T22:02:21.223Z,59.46
2023-03-26T22:05:00.703Z,59.67
2023-03-26T22:07:48.342Z,59.74
2023-03-26T22:10:15.679Z,59.60
2023-03-26T22:12:42.866Z,59.87
2023-03-26T22:15:10.893Z,60.00
2023-03-26T22:17:38.081Z,60.10
2023-03-26T22:20:06.305Z,59.74
2023-03-26T22:22:33.488Z,59.54
2023-03-26T22:25:00.689Z,59.45
2023-03-26T22:27:27.992Z,59.07
2023-03-26T22:29:55.157Z,58.42
2023-03-26T22:32:22.512Z,57.78
2023-03-26T22:34:49.696Z,57.32
2023-03-26T22:37:16.906Z,57.52
2023-03-26T22:39:44.205Z,56.94
2023-03-26T22:42:11.302Z,56.68
2023-03-26T22:44:38.463Z,56.95
2023-03-26T22:47:06.008Z,56.58
2023-03-26T22:49:33.177Z,56.15
2023-03-26T22:52:00.553Z,56.35
2023-03-26T22:54:27.694Z,56.09
2023-03-26T22:56:54.960Z,56.10
2023-03-26T22:59:22.141Z,55.51
2023-03-26T23:01:49.303Z,55.89
2023-03-26T23:04:31.191Z,55.63
2023-03-26T23:06:59.571Z,56.23
2023-03-26T23:09:26.870Z,56.57
2023-03-26T23:11:53.995Z,56.82
2023-03-26T23:14:21.164Z,56.92
2023-03-26T23:16:48.697Z,56.34
2023-03-26T23:19:16.699Z,56.13
2023-03-26T23:21:43.936Z,56.01
2023-03-26T23:24:11.110Z,56.78
2023-03-26T23:26:49.427Z,57.33
2023-03-26T23:29:17.609Z,57.59
2023-03-26T23:31:44.786Z,58.03
2023-03-26T23:34:11.974Z,58.18
2023-03-26T23:36:39.536Z,58.27
2023-03-26T23:39:06.813Z,58.20
2023-03-26T23:41:34.061Z,58.64
2023-03-26T23:44:01.362Z,58.59
2023-03-26T23:46:29.360Z,58.71
2023-03-26T23:48:56.525Z,58.61
2023-03-26T23:51:23.704Z,58.38
2023-03-26T23:53:51.631Z,58.72
2023-03-26T23:56:18.870Z,58.68
2023-03-26T23:58:46.105Z,58.63
